Port Kenny — VRGP2 — position and weather

sailwx.info

Track history (hours):
 
Tides and Currents Weather Stations Pressure Air Temp Water Temp Dewpoint Dewpoint Depression Visibility Wind Speed Wind Dir Waves Ship Positions

Port Kenny

Last reported at 2018-Jun-25 06:02 UTC. Time now 2018-Jun-25 11:27 UTC.
Position N 54°42' W 000°53'.

Length 170 m; draft 5.7 m.

Type: Cargo ship. MMSI: 477742592.

Date/timePositionNaut miles runAvg speedWind from/ knotsBaromVisibWave heightAir tempDewpointWater temp
2018-Jun-25 06:02N 54°42' W 000°53'0 0.4
2018-Jun-25 05:59N 54°42' W 000°53'0 0.2
2018-Jun-25 05:29N 54°42' W 000°53'0 0.0
2018-Jun-25 04:59N 54°42' W 000°53'0 0.0
2018-Jun-25 04:23N 54°42' W 000°53'0 0.0
2018-Jun-25 03:59N 54°42' W 000°53'0 0.0
2018-Jun-25 03:29N 54°42' W 000°53'0 0.0
2018-Jun-25 02:59N 54°42' W 000°53'0 0.0
2018-Jun-24 14:59N 54°42' W 000°53'0 0.1
2018-Jun-24 14:29N 54°42' W 000°53'0 0.0
2018-Jun-24 13:56N 54°42' W 000°53'15 4.4
2018-Jun-24 10:28N 54°37' W 000°29'511.1
2018-Jun-24 10:00N 54°35' W 000°20'611.3
2018-Jun-24 09:31N 54°33' W 000°12'611.6
2018-Jun-24 09:01N 54°30' W 000°03'611.7
2018-Jun-24 08:31N 54°28' E 000°07'611.7
2018-Jun-24 08:00N 54°25' E 000°16'611.7
2018-Jun-24 07:31N 54°23' E 000°25'611.5
2018-Jun-24 07:01N 54°20' E 000°34'711.5
2018-Jun-24 06:25N 54°18' E 000°44'511.5
2018-Jun-24 06:00N 54°16' E 000°52'2210.7
2018-Jun-24 03:55N 54°07' E 001°27'510.5
2018-Jun-24 03:28N 54°05' E 001°34'610.4
2018-Jun-24 02:51N 54°04' E 001°45'410.5
2018-Jun-24 02:26N 54°03' E 001°52'510.7
2018-Jun-24 02:00N 54°01' E 001°60'2611.1
2018-Jun-23 23:39N 53°48' E 002°37'211.8
2018-Jun-23 23:28N 53°46' E 002°40'812.1
2018-Jun-23 22:47N 53°40' E 002°49'411.7
2018-Jun-23 22:27N 53°38' E 002°54'611.9
2018-Jun-23 21:57N 53°34' E 003°02'611.4
2018-Jun-23 21:28N 53°30' E 003°08'1511.0
2018-Jun-23 20:08N 53°17' E 003°21'410.4
2018-Jun-23 19:46N 53°14' E 003°25'410.3
2018-Jun-23 19:23N 53°11' E 003°29'410.2
2018-Jun-23 18:58N 53°07' E 003°33'6 9.9
2018-Jun-23 18:22N 53°02' E 003°38'4 9.8
2018-Jun-23 18:00N 52°59' E 003°41'5 9.7
2018-Jun-23 17:30N 52°55' E 003°45'5 9.7
2018-Jun-23 17:00N 52°51' E 003°50'5 9.7
2018-Jun-23 16:31N 52°47' E 003°54'5 9.8
2018-Jun-23 16:00N 52°43' E 003°59'510.0
2018-Jun-23 15:30N 52°39' E 004°03'510.4
2018-Jun-23 15:00N 52°34' E 004°07'510.0
2018-Jun-23 14:30N 52°31' E 004°13'510.1
2018-Jun-23 14:00N 52°30' E 004°21'510.0
2018-Jun-23 13:30N 52°28' E 004°29'4 8.8
2018-Jun-23 13:00N 52°28' E 004°36'0 0.4
2018-Jun-23 12:30N 52°28' E 004°37'2 4.8
2018-Jun-23 12:00N 52°27' E 004°40'4 8.0
2018-Jun-23 11:30N 52°26' E 004°46'4 7.6
2018-Jun-23 11:01N 52°25' E 004°52'0 0.5
2018-Jun-23 10:28N 52°24' E 004°52'0 0.0
2018-Jun-23 09:58N 52°24' E 004°52'0 0.0
2018-Jun-23 09:28N 52°24' E 004°52'0 0.0
2018-Jun-23 08:58N 52°24' E 004°52'0 0.0
2018-Jun-23 08:28N 52°24' E 004°52'0 0.0
2018-Jun-23 07:58N 52°24' E 004°52'0 0.0
2018-Jun-23 07:28N 52°24' E 004°52'0 0.0
2018-Jun-23 06:58N 52°24' E 004°52'0 0.0
2018-Jun-23 06:28N 52°24' E 004°52'0 0.0
2018-Jun-23 05:58N 52°24' E 004°52'0 0.0
2018-Jun-23 05:28N 52°24' E 004°52'0 0.0
2018-Jun-23 04:58N 52°24' E 004°52'0 0.0
2018-Jun-23 04:28N 52°24' E 004°52'0 0.0
2018-Jun-23 03:58N 52°24' E 004°52'0 0.0
2018-Jun-23 03:28N 52°24' E 004°52'0 0.0
2018-Jun-23 02:58N 52°24' E 004°52'0 0.0
2018-Jun-23 02:28N 52°24' E 004°52'0 0.0
2018-Jun-23 01:58N 52°24' E 004°52'0 0.0
2018-Jun-23 01:28N 52°24' E 004°52'0 0.0
2018-Jun-23 00:58N 52°24' E 004°52'0 0.0
2018-Jun-23 00:28N 52°24' E 004°52'0 0.0
2018-Jun-22 23:58N 52°24' E 004°52'0 0.0
2018-Jun-22 23:28N 52°24' E 004°52'0 0.0
2018-Jun-22 22:58N 52°24' E 004°52'0 0.0
2018-Jun-22 22:28N 52°24' E 004°52'0 0.0
2018-Jun-22 21:58N 52°24' E 004°52'0 0.0
2018-Jun-22 21:28N 52°24' E 004°52'0 0.0
2018-Jun-22 20:58N 52°24' E 004°52'0 0.0
2018-Jun-22 20:28N 52°24' E 004°52'0 0.0
2018-Jun-22 19:58N 52°24' E 004°52'0 0.0
2018-Jun-22 19:28N 52°24' E 004°52'0 0.0
2018-Jun-22 18:58N 52°24' E 004°52'0 0.0
2018-Jun-22 18:28N 52°24' E 004°52'0 0.0
2018-Jun-22 17:58N 52°24' E 004°52'0 0.0
2018-Jun-22 17:28N 52°24' E 004°52'0 0.0
2018-Jun-22 16:58N 52°24' E 004°52'0 0.0
2018-Jun-22 16:28N 52°24' E 004°52'0 0.0
2018-Jun-22 15:58N 52°24' E 004°52'0 0.0
2018-Jun-22 15:28N 52°24' E 004°52'0 0.0
2018-Jun-22 14:58N 52°24' E 004°52'0 0.0
2018-Jun-22 14:28N 52°24' E 004°52'0 0.0
2018-Jun-22 13:58N 52°24' E 004°52'0 0.0
2018-Jun-22 13:28N 52°24' E 004°52'0 0.0
2018-Jun-22 12:59N 52°24' E 004°52'0 0.0
2018-Jun-22 12:28N 52°24' E 004°52'0 0.0
2018-Jun-22 11:58N 52°24' E 004°52'0 0.0
2018-Jun-22 11:28N 52°24' E 004°52'0 0.0
2018-Jun-22 10:58N 52°24' E 004°52'0 0.0
2018-Jun-22 10:28N 52°24' E 004°52'0 0.0
2018-Jun-22 09:58N 52°24' E 004°52'0 0.0
2018-Jun-22 09:28N 52°24' E 004°52'0 0.0
2018-Jun-22 08:58N 52°24' E 004°52'0 0.0
2018-Jun-22 08:28N 52°24' E 004°52'0 0.0
2018-Jun-22 07:58N 52°24' E 004°52'0 0.0
2018-Jun-22 07:28N 52°24' E 004°52'0 0.0
2018-Jun-22 06:58N 52°24' E 004°52'0 0.0
2018-Jun-22 06:28N 52°24' E 004°52'0 0.0
2018-Jun-22 05:58N 52°24' E 004°52'0 0.0
2018-Jun-22 05:28N 52°24' E 004°52'0 0.0
2018-Jun-22 04:58N 52°24' E 004°52'0 0.0
2018-Jun-22 04:28N 52°24' E 004°52'0 0.0
2018-Jun-22 03:58N 52°24' E 004°52'0 0.0
2018-Jun-22 03:28N 52°24' E 004°52'0 0.0
2018-Jun-22 02:58N 52°24' E 004°52'0 0.0
2018-Jun-22 02:28N 52°24' E 004°52'0 0.0
2018-Jun-22 01:58N 52°24' E 004°52'0 0.0
2018-Jun-22 01:28N 52°24' E 004°52'0 0.0
2018-Jun-22 00:58N 52°24' E 004°52'0 0.0
2018-Jun-22 00:28N 52°24' E 004°52'0 0.0
2018-Jun-21 23:58N 52°24' E 004°52'0 0.0
2018-Jun-21 23:28N 52°24' E 004°52'0 0.0
2018-Jun-21 23:01N 52°24' E 004°52'2 3.4
2018-Jun-21 22:31N 52°25' E 004°50'4 7.5
2018-Jun-21 22:00N 52°26' E 004°44'4 7.6
2018-Jun-21 21:31N 52°28' E 004°38'1 2.4
2018-Jun-21 21:00N 52°28' E 004°37'1 1.6
2018-Jun-21 20:30N 52°28' E 004°35'1 1.2
2018-Jun-21 20:00N 52°28' E 004°34'4 8.0
2018-Jun-21 19:31N 52°28' E 004°28'4 7.2
2018-Jun-21 19:00N 52°28' E 004°22'2 3.3
2018-Jun-21 18:31N 52°28' E 004°19'3 5.7
2018-Jun-21 18:01N 52°29' E 004°15'3 5.5
2018-Jun-21 17:30N 52°29' E 004°10'3 5.8
2018-Jun-21 17:00N 52°31' E 004°08'4 7.1
2018-Jun-21 16:31N 52°35' E 004°05'4 7.2
2018-Jun-21 16:00N 52°37' E 004°01'3 5.9
2018-Jun-21 15:31N 52°34' E 003°59'3 5.0
2018-Jun-21 15:00N 52°32' E 003°58'2 4.2
2018-Jun-21 14:31N 52°31' E 004°01'3 6.2
2018-Jun-21 14:01N 52°31' E 004°07'5 9.0
2018-Jun-21 13:29N 52°36' E 004°04'3 4.9
2018-Jun-21 12:57N 52°38' E 004°02'3 6.8
2018-Jun-21 12:30N 52°41' E 004°00'4 6.8
2018-Jun-21 11:58N 52°45' E 003°59'10 9.7
2018-Jun-21 11:00N 52°54' E 004°00'12 4.9 330 / 241023.6 5.4 18.110.518.0
2018-Jun-21 08:34N 53°04' E 004°12'0 4.8
2018-Jun-21 08:30N 53°04' E 004°12'4 6.0
2018-Jun-21 07:54N 53°06' E 004°17'2 5.6
2018-Jun-21 07:29N 53°08' E 004°20'3 6.1
2018-Jun-21 06:58N 53°09' E 004°24'3 5.6
2018-Jun-21 06:27N 53°12' E 004°26'4 8.3
2018-Jun-21 06:00N 53°16' E 004°28'612.5
2018-Jun-21 05:31N 53°22' E 004°31'612.4
2018-Jun-21 05:01N 53°27' E 004°34'612.1
2018-Jun-21 04:31N 53°33' E 004°37'611.7
2018-Jun-21 04:01N 53°39' E 004°41'176 9.8
2018-Jun-20 10:00N 56°12' E 007°12'154 7.8 220 / 281014.7 5.4 18.414.817.0
2018-Jun-19 14:21N 57°39' E 011°04'4 8.8
2018-Jun-19 13:56N 57°37' E 011°09'4 8.9
2018-Jun-19 13:29N 57°34' E 011°15'4 9.1
2018-Jun-19 13:00N 57°31' E 011°21'4 8.7
2018-Jun-19 12:30N 57°28' E 011°26'5 9.2
2018-Jun-19 12:00N 57°24' E 011°29'18 8.9
2018-Jun-19 10:00N 57°06' E 011°36'57 9.8 280 / 231016.210.8 17.0 9.420.0
2018-Jun-19 04:09N 56°13' E 012°18'4 9.5
2018-Jun-19 03:42N 56°11' E 012°24'2 9.8
2018-Jun-19 03:30N 56°10' E 012°27'5 9.8
2018-Jun-19 03:01N 56°07' E 012°33'4 8.1
2018-Jun-19 02:31N 56°04' E 012°39'611.3
2018-Jun-19 02:01N 55°58' E 012°42'612.5
2018-Jun-19 01:31N 55°52' E 012°44'612.4
2018-Jun-19 01:00N 55°47' E 012°49'612.4
2018-Jun-19 00:30N 55°41' E 012°55'5 9.3
2018-Jun-19 00:00N 55°37' E 012°53'5 9.6
2018-Jun-18 23:30N 55°33' E 012°48'4 8.2
2018-Jun-18 23:00N 55°30' E 012°43'4 7.0
2018-Jun-18 22:30N 55°26' E 012°42'4 8.1
2018-Jun-18 22:00N 55°22' E 012°41'511.0
2018-Jun-18 21:30N 55°17' E 012°45'611.4
2018-Jun-18 21:00N 55°15' E 012°54'611.0
2018-Jun-18 20:30N 55°12' E 013°02'10610.7
2018-Jun-18 10:35N 53°40' E 014°32'1 9.3
2018-Jun-18 10:30N 53°39' E 014°33'5 9.3
2018-Jun-18 09:59N 53°35' E 014°36'1 0.8
2018-Jun-18 09:06N 53°34' E 014°35'0 0.0
2018-Jun-18 08:57N 53°34' E 014°35'0 0.0
2018-Jun-18 07:30N 53°34' E 014°35'0 0.0
2018-Jun-18 06:48N 53°34' E 014°35'0 0.0
2018-Jun-18 06:06N 53°34' E 014°35'0 0.0
2018-Jun-18 06:00N 53°34' E 014°35'0 0.0
2018-Jun-18 05:30N 53°34' E 014°35'0 0.0
2018-Jun-18 04:51N 53°34' E 014°35'0 0.0
2018-Jun-18 04:24N 53°34' E 014°35'0 0.0
2018-Jun-18 04:00N 53°34' E 014°35'0 0.0
2018-Jun-18 03:30N 53°34' E 014°35'0 0.0
2018-Jun-18 02:57N 53°34' E 014°35'0 0.0
2018-Jun-18 02:18N 53°34' E 014°35'0 0.0
2018-Jun-18 01:54N 53°34' E 014°35'0 0.0
2018-Jun-18 01:24N 53°34' E 014°35'0 0.0
2018-Jun-18 00:57N 53°34' E 014°35'0 0.0
2018-Jun-18 00:30N 53°34' E 014°35'0 0.0
2018-Jun-17 23:57N 53°34' E 014°35'0 0.0
2018-Jun-17 23:30N 53°34' E 014°35'0 0.0
2018-Jun-17 23:00N 53°34' E 014°35'0 0.0
2018-Jun-17 22:24N 53°34' E 014°35'0 0.0
2018-Jun-17 21:57N 53°34' E 014°35'0 0.0
2018-Jun-17 21:30N 53°34' E 014°35'0 0.0
2018-Jun-17 21:00N 53°34' E 014°35'0 0.0
2018-Jun-17 20:27N 53°34' E 014°35'0 0.0
2018-Jun-17 19:57N 53°34' E 014°35'0 0.0
2018-Jun-17 19:30N 53°34' E 014°35'0 0.0
2018-Jun-17 19:00N 53°34' E 014°35'0 0.0
2018-Jun-17 18:30N 53°34' E 014°35'0 0.0
2018-Jun-17 17:57N 53°34' E 014°35'0 0.0
2018-Jun-17 17:27N 53°34' E 014°35'0 0.0
2018-Jun-17 17:00N 53°34' E 014°35'0 0.0
2018-Jun-17 16:27N 53°34' E 014°35'0 0.0
2018-Jun-17 16:00N 53°34' E 014°35'0 0.0
2018-Jun-17 15:27N 53°34' E 014°35'0 0.0
2018-Jun-17 14:18N 53°34' E 014°35'0 0.0
2018-Jun-17 13:57N 53°34' E 014°35'0 0.0
2018-Jun-17 13:27N 53°34' E 014°35'0 0.0
2018-Jun-17 12:57N 53°34' E 014°35'0 0.0
2018-Jun-17 12:30N 53°34' E 014°35'0 0.0
2018-Jun-17 12:00N 53°34' E 014°35'0 0.0
2018-Jun-17 11:27N 53°34' E 014°35'0 0.0
2018-Jun-17 10:57N 53°34' E 014°35'0 0.0
2018-Jun-17 10:30N 53°34' E 014°35'0 0.0
2018-Jun-17 10:00N 53°34' E 014°35'0 0.0
2018-Jun-17 09:27N 53°34' E 014°35'0 0.0
2018-Jun-17 09:00N 53°34' E 014°35'0 0.0
2018-Jun-17 08:30N 53°34' E 014°35'0 0.0
2018-Jun-17 07:57N 53°34' E 014°35'0 0.0
2018-Jun-17 07:30N 53°34' E 014°35'0 0.0
2018-Jun-17 06:57N 53°34' E 014°35'0 0.0
2018-Jun-17 06:30N 53°34' E 014°35'0 0.0
2018-Jun-17 06:00N 53°34' E 014°35'0 0.0
2018-Jun-17 05:21N 53°34' E 014°35'0 0.0
2018-Jun-17 05:00N 53°34' E 014°35'0 0.0
2018-Jun-17 04:27N 53°34' E 014°35'0 0.0
2018-Jun-17 03:57N 53°34' E 014°35'0 0.0
2018-Jun-17 03:30N 53°34' E 014°35'0 0.0
2018-Jun-17 02:57N 53°34' E 014°35'0 0.0
2018-Jun-17 02:27N 53°34' E 014°35'0 0.0
2018-Jun-17 01:57N 53°34' E 014°35'0 0.0
2018-Jun-17 01:24N 53°34' E 014°35'0 0.0
2018-Jun-17 01:00N 53°34' E 014°35'0 0.0
2018-Jun-17 00:27N 53°34' E 014°35'0 0.0
2018-Jun-16 23:57N 53°34' E 014°35'0 0.0
2018-Jun-16 23:27N 53°34' E 014°35'0 0.0
2018-Jun-16 23:00N 53°34' E 014°35'0 0.0
2018-Jun-16 22:30N 53°34' E 014°35'0 0.0
2018-Jun-16 22:00N 53°34' E 014°35'0 0.0
2018-Jun-16 21:27N 53°34' E 014°35'0 0.0
2018-Jun-16 21:00N 53°34' E 014°35'0 0.0
2018-Jun-16 20:30N 53°34' E 014°35'0 0.0
2018-Jun-16 20:00N 53°34' E 014°35'0 0.0
2018-Jun-16 19:30N 53°34' E 014°35'0 0.0
2018-Jun-16 19:00N 53°34' E 014°35'0 0.0
2018-Jun-16 18:24N 53°34' E 014°35'0 0.0
2018-Jun-16 17:57N 53°34' E 014°35'0 0.0
2018-Jun-16 17:27N 53°34' E 014°35'0 0.0
2018-Jun-16 16:57N 53°34' E 014°35'0 0.0
2018-Jun-16 16:30N 53°34' E 014°35'0 0.0
2018-Jun-16 15:54N 53°34' E 014°35'0 0.0
2018-Jun-16 15:24N 53°34' E 014°35'0 0.0
2018-Jun-16 15:00N 53°34' E 014°35'0 0.0
2018-Jun-16 14:30N 53°34' E 014°35'0 0.0
2018-Jun-16 13:57N 53°34' E 014°35'0 0.0
2018-Jun-16 13:30N 53°34' E 014°35'0 0.0
2018-Jun-16 13:00N 53°34' E 014°35'0 0.0
2018-Jun-16 12:24N 53°34' E 014°35'0 0.0
2018-Jun-16 12:00N 53°34' E 014°35'0 0.0
2018-Jun-16 11:27N 53°34' E 014°35'0 0.0
2018-Jun-16 11:00N 53°34' E 014°35'0 0.0
2018-Jun-16 09:51N 53°34' E 014°35'0 0.0
2018-Jun-16 09:15N 53°34' E 014°35'0 0.0
2018-Jun-16 08:54N 53°34' E 014°35'0 0.0
2018-Jun-16 08:27N 53°34' E 014°35'0 0.0
2018-Jun-16 07:57N 53°34' E 014°35'0 0.0
2018-Jun-16 07:27N 53°34' E 014°35'0 0.0
2018-Jun-16 06:57N 53°34' E 014°35'0 0.0
2018-Jun-16 06:03N 53°34' E 014°35'0 0.0
2018-Jun-16 05:42N 53°34' E 014°35'0 0.0
2018-Jun-16 05:27N 53°34' E 014°35'0 0.0
2018-Jun-16 05:00N 53°34' E 014°35'0 0.0
2018-Jun-16 04:15N 53°34' E 014°35'0 0.0
2018-Jun-16 03:39N 53°34' E 014°35'0 0.0
2018-Jun-16 03:15N 53°34' E 014°35'0 0.0
2018-Jun-16 02:57N 53°34' E 014°35'0 0.0
2018-Jun-15 22:30N 53°34' E 014°35'0 0.0
2018-Jun-15 21:57N 53°34' E 014°35'0 0.0
2018-Jun-15 21:27N 53°34' E 014°35'0 0.0
2018-Jun-15 20:51N 53°34' E 014°35'0 0.0
2018-Jun-15 20:30N 53°34' E 014°35'0 0.0
2018-Jun-15 19:45N 53°34' E 014°35'0 0.0
2018-Jun-15 19:24N 53°34' E 014°35'0 0.0
2018-Jun-15 18:54N 53°34' E 014°35'0 0.0
2018-Jun-15 18:21N 53°34' E 014°35'0 0.0
2018-Jun-15 17:45N 53°34' E 014°35'0 0.0
2018-Jun-15 17:27N 53°34' E 014°35'0 0.0
2018-Jun-15 16:39N 53°34' E 014°35'0 0.0
2018-Jun-15 16:27N 53°34' E 014°35'0 0.0
2018-Jun-15 15:57N 53°34' E 014°35'0 0.0
2018-Jun-15 15:24N 53°34' E 014°35'0 0.0
2018-Jun-15 14:57N 53°34' E 014°35'0 0.0
2018-Jun-15 14:27N 53°34' E 014°35'0 0.0
2018-Jun-15 13:57N 53°34' E 014°35'0 0.0
2018-Jun-15 13:27N 53°34' E 014°35'0 0.0
2018-Jun-15 12:57N 53°34' E 014°35'0 0.0
2018-Jun-15 09:09N 53°34' E 014°35'0 0.0
2018-Jun-15 08:57N 53°34' E 014°35'0 0.0
2018-Jun-15 08:24N 53°34' E 014°35'0 0.0
2018-Jun-15 07:57N 53°34' E 014°35'0 0.0
2018-Jun-15 07:24N 53°34' E 014°35'0 0.0
2018-Jun-15 07:00N 53°34' E 014°35'0 0.0
2018-Jun-15 06:21N 53°34' E 014°35'  
Track history (hours):
 
Tides and Currents Weather Stations Pressure Air Temp Water Temp Dewpoint Dewpoint Depression Visibility Wind Speed Wind Dir Waves Ship Positions

Port Kenny

Last reported at 2018-Jun-25 06:02 UTC. Time now 2018-Jun-25 11:27 UTC.
Position N 54°42' W 000°53'.

Length 170 m; draft 5.7 m.

Type: Cargo ship. MMSI: 477742592.

Date/timePositionNaut miles runAvg speedWind from/ knotsBaromVisibWave heightAir tempDewpointWater temp
2018-Jun-25 06:02N 54°42' W 000°53'0 0.4
2018-Jun-25 05:59N 54°42' W 000°53'0 0.2
2018-Jun-25 05:29N 54°42' W 000°53'0 0.0
2018-Jun-25 04:59N 54°42' W 000°53'0 0.0
2018-Jun-25 04:23N 54°42' W 000°53'0 0.0
2018-Jun-25 03:59N 54°42' W 000°53'0 0.0
2018-Jun-25 03:29N 54°42' W 000°53'0 0.0
2018-Jun-25 02:59N 54°42' W 000°53'0 0.0
2018-Jun-24 14:59N 54°42' W 000°53'0 0.1
2018-Jun-24 14:29N 54°42' W 000°53'0 0.0
2018-Jun-24 13:56N 54°42' W 000°53'15 4.4
2018-Jun-24 10:28N 54°37' W 000°29'511.1
2018-Jun-24 10:00N 54°35' W 000°20'611.3
2018-Jun-24 09:31N 54°33' W 000°12'611.6
2018-Jun-24 09:01N 54°30' W 000°03'611.7
2018-Jun-24 08:31N 54°28' E 000°07'611.7
2018-Jun-24 08:00N 54°25' E 000°16'611.7
2018-Jun-24 07:31N 54°23' E 000°25'611.5
2018-Jun-24 07:01N 54°20' E 000°34'711.5
2018-Jun-24 06:25N 54°18' E 000°44'511.5
2018-Jun-24 06:00N 54°16' E 000°52'2210.7
2018-Jun-24 03:55N 54°07' E 001°27'510.5
2018-Jun-24 03:28N 54°05' E 001°34'610.4
2018-Jun-24 02:51N 54°04' E 001°45'410.5
2018-Jun-24 02:26N 54°03' E 001°52'510.7
2018-Jun-24 02:00N 54°01' E 001°60'2611.1
2018-Jun-23 23:39N 53°48' E 002°37'211.8
2018-Jun-23 23:28N 53°46' E 002°40'812.1
2018-Jun-23 22:47N 53°40' E 002°49'411.7
2018-Jun-23 22:27N 53°38' E 002°54'611.9
2018-Jun-23 21:57N 53°34' E 003°02'611.4
2018-Jun-23 21:28N 53°30' E 003°08'1511.0
2018-Jun-23 20:08N 53°17' E 003°21'410.4
2018-Jun-23 19:46N 53°14' E 003°25'410.3
2018-Jun-23 19:23N 53°11' E 003°29'410.2
2018-Jun-23 18:58N 53°07' E 003°33'6 9.9
2018-Jun-23 18:22N 53°02' E 003°38'4 9.8
2018-Jun-23 18:00N 52°59' E 003°41'5 9.7
2018-Jun-23 17:30N 52°55' E 003°45'5 9.7
2018-Jun-23 17:00N 52°51' E 003°50'5 9.7
2018-Jun-23 16:31N 52°47' E 003°54'5 9.8
2018-Jun-23 16:00N 52°43' E 003°59'510.0
2018-Jun-23 15:30N 52°39' E 004°03'510.4
2018-Jun-23 15:00N 52°34' E 004°07'510.0
2018-Jun-23 14:30N 52°31' E 004°13'510.1
2018-Jun-23 14:00N 52°30' E 004°21'510.0
2018-Jun-23 13:30N 52°28' E 004°29'4 8.8
2018-Jun-23 13:00N 52°28' E 004°36'0 0.4
2018-Jun-23 12:30N 52°28' E 004°37'2 4.8
2018-Jun-23 12:00N 52°27' E 004°40'4 8.0
2018-Jun-23 11:30N 52°26' E 004°46'4 7.6
2018-Jun-23 11:01N 52°25' E 004°52'0 0.5
2018-Jun-23 10:28N 52°24' E 004°52'0 0.0
2018-Jun-23 09:58N 52°24' E 004°52'0 0.0
2018-Jun-23 09:28N 52°24' E 004°52'0 0.0
2018-Jun-23 08:58N 52°24' E 004°52'0 0.0
2018-Jun-23 08:28N 52°24' E 004°52'0 0.0
2018-Jun-23 07:58N 52°24' E 004°52'0 0.0
2018-Jun-23 07:28N 52°24' E 004°52'0 0.0
2018-Jun-23 06:58N 52°24' E 004°52'0 0.0
2018-Jun-23 06:28N 52°24' E 004°52'0 0.0
2018-Jun-23 05:58N 52°24' E 004°52'0 0.0
2018-Jun-23 05:28N 52°24' E 004°52'0 0.0
2018-Jun-23 04:58N 52°24' E 004°52'0 0.0
2018-Jun-23 04:28N 52°24' E 004°52'0 0.0
2018-Jun-23 03:58N 52°24' E 004°52'0 0.0
2018-Jun-23 03:28N 52°24' E 004°52'0 0.0
2018-Jun-23 02:58N 52°24' E 004°52'0 0.0
2018-Jun-23 02:28N 52°24' E 004°52'0 0.0
2018-Jun-23 01:58N 52°24' E 004°52'0 0.0
2018-Jun-23 01:28N 52°24' E 004°52'0 0.0
2018-Jun-23 00:58N 52°24' E 004°52'0 0.0
2018-Jun-23 00:28N 52°24' E 004°52'0 0.0
2018-Jun-22 23:58N 52°24' E 004°52'0 0.0
2018-Jun-22 23:28N 52°24' E 004°52'0 0.0
2018-Jun-22 22:58N 52°24' E 004°52'0 0.0
2018-Jun-22 22:28N 52°24' E 004°52'0 0.0
2018-Jun-22 21:58N 52°24' E 004°52'0 0.0
2018-Jun-22 21:28N 52°24' E 004°52'0 0.0
2018-Jun-22 20:58N 52°24' E 004°52'0 0.0
2018-Jun-22 20:28N 52°24' E 004°52'0 0.0
2018-Jun-22 19:58N 52°24' E 004°52'0 0.0
2018-Jun-22 19:28N 52°24' E 004°52'0 0.0
2018-Jun-22 18:58N 52°24' E 004°52'0 0.0
2018-Jun-22 18:28N 52°24' E 004°52'0 0.0
2018-Jun-22 17:58N 52°24' E 004°52'0 0.0
2018-Jun-22 17:28N 52°24' E 004°52'0 0.0
2018-Jun-22 16:58N 52°24' E 004°52'0 0.0
2018-Jun-22 16:28N 52°24' E 004°52'0 0.0
2018-Jun-22 15:58N 52°24' E 004°52'0 0.0
2018-Jun-22 15:28N 52°24' E 004°52'0 0.0
2018-Jun-22 14:58N 52°24' E 004°52'0 0.0
2018-Jun-22 14:28N 52°24' E 004°52'0 0.0
2018-Jun-22 13:58N 52°24' E 004°52'0 0.0
2018-Jun-22 13:28N 52°24' E 004°52'0 0.0
2018-Jun-22 12:59N 52°24' E 004°52'0 0.0
2018-Jun-22 12:28N 52°24' E 004°52'0 0.0
2018-Jun-22 11:58N 52°24' E 004°52'0 0.0
2018-Jun-22 11:28N 52°24' E 004°52'0 0.0
2018-Jun-22 10:58N 52°24' E 004°52'0 0.0
2018-Jun-22 10:28N 52°24' E 004°52'0 0.0
2018-Jun-22 09:58N 52°24' E 004°52'0 0.0
2018-Jun-22 09:28N 52°24' E 004°52'0 0.0
2018-Jun-22 08:58N 52°24' E 004°52'0 0.0
2018-Jun-22 08:28N 52°24' E 004°52'0 0.0
2018-Jun-22 07:58N 52°24' E 004°52'0 0.0
2018-Jun-22 07:28N 52°24' E 004°52'0 0.0
2018-Jun-22 06:58N 52°24' E 004°52'0 0.0
2018-Jun-22 06:28N 52°24' E 004°52'0 0.0
2018-Jun-22 05:58N 52°24' E 004°52'0 0.0
2018-Jun-22 05:28N 52°24' E 004°52'0 0.0
2018-Jun-22 04:58N 52°24' E 004°52'0 0.0
2018-Jun-22 04:28N 52°24' E 004°52'0 0.0
2018-Jun-22 03:58N 52°24' E 004°52'0 0.0
2018-Jun-22 03:28N 52°24' E 004°52'0 0.0
2018-Jun-22 02:58N 52°24' E 004°52'0 0.0
2018-Jun-22 02:28N 52°24' E 004°52'0 0.0
2018-Jun-22 01:58N 52°24' E 004°52'0 0.0
2018-Jun-22 01:28N 52°24' E 004°52'0 0.0
2018-Jun-22 00:58N 52°24' E 004°52'0 0.0
2018-Jun-22 00:28N 52°24' E 004°52'0 0.0
2018-Jun-21 23:58N 52°24' E 004°52'0 0.0
2018-Jun-21 23:28N 52°24' E 004°52'0 0.0
2018-Jun-21 23:01N 52°24' E 004°52'2 3.4
2018-Jun-21 22:31N 52°25' E 004°50'4 7.5
2018-Jun-21 22:00N 52°26' E 004°44'4 7.6
2018-Jun-21 21:31N 52°28' E 004°38'1 2.4
2018-Jun-21 21:00N 52°28' E 004°37'1 1.6
2018-Jun-21 20:30N 52°28' E 004°35'1 1.2
2018-Jun-21 20:00N 52°28' E 004°34'4 8.0
2018-Jun-21 19:31N 52°28' E 004°28'4 7.2
2018-Jun-21 19:00N 52°28' E 004°22'2 3.3
2018-Jun-21 18:31N 52°28' E 004°19'3 5.7
2018-Jun-21 18:01N 52°29' E 004°15'3 5.5
2018-Jun-21 17:30N 52°29' E 004°10'3 5.8
2018-Jun-21 17:00N 52°31' E 004°08'4 7.1
2018-Jun-21 16:31N 52°35' E 004°05'4 7.2
2018-Jun-21 16:00N 52°37' E 004°01'3 5.9
2018-Jun-21 15:31N 52°34' E 003°59'3 5.0
2018-Jun-21 15:00N 52°32' E 003°58'2 4.2
2018-Jun-21 14:31N 52°31' E 004°01'3 6.2
2018-Jun-21 14:01N 52°31' E 004°07'5 9.0
2018-Jun-21 13:29N 52°36' E 004°04'3 4.9
2018-Jun-21 12:57N 52°38' E 004°02'3 6.8
2018-Jun-21 12:30N 52°41' E 004°00'4 6.8
2018-Jun-21 11:58N 52°45' E 003°59'10 9.7
2018-Jun-21 11:00N 52°54' E 004°00'12 4.9 330 / 241023.6 5.4 18.110.518.0
2018-Jun-21 08:34N 53°04' E 004°12'0 4.8
2018-Jun-21 08:30N 53°04' E 004°12'4 6.0
2018-Jun-21 07:54N 53°06' E 004°17'2 5.6
2018-Jun-21 07:29N 53°08' E 004°20'3 6.1
2018-Jun-21 06:58N 53°09' E 004°24'3 5.6
2018-Jun-21 06:27N 53°12' E 004°26'4 8.3
2018-Jun-21 06:00N 53°16' E 004°28'612.5
2018-Jun-21 05:31N 53°22' E 004°31'612.4
2018-Jun-21 05:01N 53°27' E 004°34'612.1
2018-Jun-21 04:31N 53°33' E 004°37'611.7
2018-Jun-21 04:01N 53°39' E 004°41'176 9.8
2018-Jun-20 10:00N 56°12' E 007°12'154 7.8 220 / 281014.7 5.4 18.414.817.0
2018-Jun-19 14:21N 57°39' E 011°04'4 8.8
2018-Jun-19 13:56N 57°37' E 011°09'4 8.9
2018-Jun-19 13:29N 57°34' E 011°15'4 9.1
2018-Jun-19 13:00N 57°31' E 011°21'4 8.7
2018-Jun-19 12:30N 57°28' E 011°26'5 9.2
2018-Jun-19 12:00N 57°24' E 011°29'18 8.9
2018-Jun-19 10:00N 57°06' E 011°36'57 9.8 280 / 231016.210.8 17.0 9.420.0
2018-Jun-19 04:09N 56°13' E 012°18'4 9.5
2018-Jun-19 03:42N 56°11' E 012°24'2 9.8
2018-Jun-19 03:30N 56°10' E 012°27'5 9.8
2018-Jun-19 03:01N 56°07' E 012°33'4 8.1
2018-Jun-19 02:31N 56°04' E 012°39'611.3
2018-Jun-19 02:01N 55°58' E 012°42'612.5
2018-Jun-19 01:31N 55°52' E 012°44'612.4
2018-Jun-19 01:00N 55°47' E 012°49'612.4
2018-Jun-19 00:30N 55°41' E 012°55'5 9.3
2018-Jun-19 00:00N 55°37' E 012°53'5 9.6
2018-Jun-18 23:30N 55°33' E 012°48'4 8.2
2018-Jun-18 23:00N 55°30' E 012°43'4 7.0
2018-Jun-18 22:30N 55°26' E 012°42'4 8.1
2018-Jun-18 22:00N 55°22' E 012°41'511.0
2018-Jun-18 21:30N 55°17' E 012°45'611.4
2018-Jun-18 21:00N 55°15' E 012°54'611.0
2018-Jun-18 20:30N 55°12' E 013°02'10610.7
2018-Jun-18 10:35N 53°40' E 014°32'1 9.3
2018-Jun-18 10:30N 53°39' E 014°33'5 9.3
2018-Jun-18 09:59N 53°35' E 014°36'1 0.8
2018-Jun-18 09:06N 53°34' E 014°35'0 0.0
2018-Jun-18 08:57N 53°34' E 014°35'0 0.0
2018-Jun-18 07:30N 53°34' E 014°35'0 0.0
2018-Jun-18 06:48N 53°34' E 014°35'0 0.0
2018-Jun-18 06:06N 53°34' E 014°35'0 0.0
2018-Jun-18 06:00N 53°34' E 014°35'0 0.0
2018-Jun-18 05:30N 53°34' E 014°35'0 0.0
2018-Jun-18 04:51N 53°34' E 014°35'0 0.0
2018-Jun-18 04:24N 53°34' E 014°35'0 0.0
2018-Jun-18 04:00N 53°34' E 014°35'0 0.0
2018-Jun-18 03:30N 53°34' E 014°35'0 0.0
2018-Jun-18 02:57N 53°34' E 014°35'0 0.0
2018-Jun-18 02:18N 53°34' E 014°35'0 0.0
2018-Jun-18 01:54N 53°34' E 014°35'0 0.0
2018-Jun-18 01:24N 53°34' E 014°35'0 0.0
2018-Jun-18 00:57N 53°34' E 014°35'0 0.0
2018-Jun-18 00:30N 53°34' E 014°35'0 0.0
2018-Jun-17 23:57N 53°34' E 014°35'0 0.0
2018-Jun-17 23:30N 53°34' E 014°35'0 0.0
2018-Jun-17 23:00N 53°34' E 014°35'0 0.0
2018-Jun-17 22:24N 53°34' E 014°35'0 0.0
2018-Jun-17 21:57N 53°34' E 014°35'0 0.0
2018-Jun-17 21:30N 53°34' E 014°35'0 0.0
2018-Jun-17 21:00N 53°34' E 014°35'0 0.0
2018-Jun-17 20:27N 53°34' E 014°35'0 0.0
2018-Jun-17 19:57N 53°34' E 014°35'0 0.0
2018-Jun-17 19:30N 53°34' E 014°35'0 0.0
2018-Jun-17 19:00N 53°34' E 014°35'0 0.0
2018-Jun-17 18:30N 53°34' E 014°35'0 0.0
2018-Jun-17 17:57N 53°34' E 014°35'0 0.0
2018-Jun-17 17:27N 53°34' E 014°35'0 0.0
2018-Jun-17 17:00N 53°34' E 014°35'0 0.0
2018-Jun-17 16:27N 53°34' E 014°35'0 0.0
2018-Jun-17 16:00N 53°34' E 014°35'0 0.0
2018-Jun-17 15:27N 53°34' E 014°35'0 0.0
2018-Jun-17 14:18N 53°34' E 014°35'0 0.0
2018-Jun-17 13:57N 53°34' E 014°35'0 0.0
2018-Jun-17 13:27N 53°34' E 014°35'0 0.0
2018-Jun-17 12:57N 53°34' E 014°35'0 0.0
2018-Jun-17 12:30N 53°34' E 014°35'0 0.0
2018-Jun-17 12:00N 53°34' E 014°35'0 0.0
2018-Jun-17 11:27N 53°34' E 014°35'0 0.0
2018-Jun-17 10:57N 53°34' E 014°35'0 0.0
2018-Jun-17 10:30N 53°34' E 014°35'0 0.0
2018-Jun-17 10:00N 53°34' E 014°35'0 0.0
2018-Jun-17 09:27N 53°34' E 014°35'0 0.0
2018-Jun-17 09:00N 53°34' E 014°35'0 0.0
2018-Jun-17 08:30N 53°34' E 014°35'0 0.0
2018-Jun-17 07:57N 53°34' E 014°35'0 0.0
2018-Jun-17 07:30N 53°34' E 014°35'0 0.0
2018-Jun-17 06:57N 53°34' E 014°35'0 0.0
2018-Jun-17 06:30N 53°34' E 014°35'0 0.0
2018-Jun-17 06:00N 53°34' E 014°35'0 0.0
2018-Jun-17 05:21N 53°34' E 014°35'0 0.0
2018-Jun-17 05:00N 53°34' E 014°35'0 0.0
2018-Jun-17 04:27N 53°34' E 014°35'0 0.0
2018-Jun-17 03:57N 53°34' E 014°35'0 0.0
2018-Jun-17 03:30N 53°34' E 014°35'0 0.0
2018-Jun-17 02:57N 53°34' E 014°35'0 0.0
2018-Jun-17 02:27N 53°34' E 014°35'0 0.0
2018-Jun-17 01:57N 53°34' E 014°35'0 0.0
2018-Jun-17 01:24N 53°34' E 014°35'0 0.0
2018-Jun-17 01:00N 53°34' E 014°35'0 0.0
2018-Jun-17 00:27N 53°34' E 014°35'0 0.0
2018-Jun-16 23:57N 53°34' E 014°35'0 0.0
2018-Jun-16 23:27N 53°34' E 014°35'0 0.0
2018-Jun-16 23:00N 53°34' E 014°35'0 0.0
2018-Jun-16 22:30N 53°34' E 014°35'0 0.0
2018-Jun-16 22:00N 53°34' E 014°35'0 0.0
2018-Jun-16 21:27N 53°34' E 014°35'0 0.0
2018-Jun-16 21:00N 53°34' E 014°35'0 0.0
2018-Jun-16 20:30N 53°34' E 014°35'0 0.0
2018-Jun-16 20:00N 53°34' E 014°35'0 0.0
2018-Jun-16 19:30N 53°34' E 014°35'0 0.0
2018-Jun-16 19:00N 53°34' E 014°35'0 0.0
2018-Jun-16 18:24N 53°34' E 014°35'0 0.0
2018-Jun-16 17:57N 53°34' E 014°35'0 0.0
2018-Jun-16 17:27N 53°34' E 014°35'0 0.0
2018-Jun-16 16:57N 53°34' E 014°35'0 0.0
2018-Jun-16 16:30N 53°34' E 014°35'0 0.0
2018-Jun-16 15:54N 53°34' E 014°35'0 0.0
2018-Jun-16 15:24N 53°34' E 014°35'0 0.0
2018-Jun-16 15:00N 53°34' E 014°35'0 0.0
2018-Jun-16 14:30N 53°34' E 014°35'0 0.0
2018-Jun-16 13:57N 53°34' E 014°35'0 0.0
2018-Jun-16 13:30N 53°34' E 014°35'0 0.0
2018-Jun-16 13:00N 53°34' E 014°35'0 0.0
2018-Jun-16 12:24N 53°34' E 014°35'0 0.0
2018-Jun-16 12:00N 53°34' E 014°35'0 0.0
2018-Jun-16 11:27N 53°34' E 014°35'0 0.0
2018-Jun-16 11:00N 53°34' E 014°35'0 0.0
2018-Jun-16 09:51N 53°34' E 014°35'0 0.0
2018-Jun-16 09:15N 53°34' E 014°35'0 0.0
2018-Jun-16 08:54N 53°34' E 014°35'0 0.0
2018-Jun-16 08:27N 53°34' E 014°35'0 0.0
2018-Jun-16 07:57N 53°34' E 014°35'0 0.0
2018-Jun-16 07:27N 53°34' E 014°35'0 0.0
2018-Jun-16 06:57N 53°34' E 014°35'0 0.0
2018-Jun-16 06:03N 53°34' E 014°35'0 0.0
2018-Jun-16 05:42N 53°34' E 014°35'0 0.0
2018-Jun-16 05:27N 53°34' E 014°35'0 0.0
2018-Jun-16 05:00N 53°34' E 014°35'0 0.0
2018-Jun-16 04:15N 53°34' E 014°35'0 0.0
2018-Jun-16 03:39N 53°34' E 014°35'0 0.0
2018-Jun-16 03:15N 53°34' E 014°35'0 0.0
2018-Jun-16 02:57N 53°34' E 014°35'0 0.0
2018-Jun-15 22:30N 53°34' E 014°35'0 0.0
2018-Jun-15 21:57N 53°34' E 014°35'0 0.0
2018-Jun-15 21:27N 53°34' E 014°35'0 0.0
2018-Jun-15 20:51N 53°34' E 014°35'0 0.0
2018-Jun-15 20:30N 53°34' E 014°35'0 0.0
2018-Jun-15 19:45N 53°34' E 014°35'0 0.0
2018-Jun-15 19:24N 53°34' E 014°35'0 0.0
2018-Jun-15 18:54N 53°34' E 014°35'0 0.0
2018-Jun-15 18:21N 53°34' E 014°35'0 0.0
2018-Jun-15 17:45N 53°34' E 014°35'0 0.0
2018-Jun-15 17:27N 53°34' E 014°35'0 0.0
2018-Jun-15 16:39N 53°34' E 014°35'0 0.0
2018-Jun-15 16:27N 53°34' E 014°35'0 0.0
2018-Jun-15 15:57N 53°34' E 014°35'0 0.0
2018-Jun-15 15:24N 53°34' E 014°35'0 0.0
2018-Jun-15 14:57N 53°34' E 014°35'0 0.0
2018-Jun-15 14:27N 53°34' E 014°35'0 0.0
2018-Jun-15 13:57N 53°34' E 014°35'0 0.0
2018-Jun-15 13:27N 53°34' E 014°35'0 0.0
2018-Jun-15 12:57N 53°34' E 014°35'0 0.0
2018-Jun-15 09:09N 53°34' E 014°35'0 0.0
2018-Jun-15 08:57N 53°34' E 014°35'0 0.0
2018-Jun-15 08:24N 53°34' E 014°35'0 0.0
2018-Jun-15 07:57N 53°34' E 014°35'0 0.0
2018-Jun-15 07:24N 53°34' E 014°35'0 0.0
2018-Jun-15 07:00N 53°34' E 014°35'0 0.0
2018-Jun-15 06:21N 53°34' E 014°35'  

Dump ship's entire track history